Terminal Aerodrome Forecast
Issued by NWS Milwaukee/Sullivan, WI

Home | Current Version | Previous Version | Text Only | Print | Product List | Glossary On
Versions: 1 2 3 4 5 6 7 8 9 10 11 12 13 14 15 16 17 18 19 20 21 22 23 24 25 26 27 28 29 30 31 32 33 34 35 36 37 38 39 40 41 42 43 44
000
FTUS43 KMKX 291144
TAFMSN
TAF
KMSN 291144Z 2912/3012 12005KT 3SM -SHRA BR OVC007
     FM291400 14004KT 3SM BR OVC008
     FM291900 36004KT P6SM BKN025
     FM292100 06004KT P6SM BKN035
     FM300700 00000KT 6SM BR SCT035
     FM300900 00000KT 1 1/2SM BR SCT025=

USA.gov is the U.S. government's official web portal to all federal, state and local government web resources and services.